Aérodrome :
LOGIN :

S'inscrire | Disclaimer

   EN    FR    IT 

 










Légende :    VFR   VFR Marginal   IFR   IFR Intensif   IFR Très Intensif
Visi : 
Plafond : 
>= 8 km
>= 3000ft
5 à 8 km
1000 à 3000 ft
1500m à 5 km
500 à 1000 ft
800 à 1500m
200 à 500 ft
< 800m
< 200 ft
Symboles :   Orages  Brouillard  Fortes neiges  Fortes précipitations  Vent > 20 kt
SIGMETs :   Divers  Orages  Givrage  Turbulence  Onde Orograph.  Cendres Volcan.






- Altitude de l'aérodrome : 1465 ft


LSMP - Payerne

DERNIER METAR :
  • 121250Z AUTO 24013KT 200V260 9999NDV FEW051 04/M01 Q1006 RMK

METARs EXPIRÉS :
  • 121220Z AUTO 23012KT 9999NDV FEW058 05/M02 Q1006 RMK
  • 121150Z AUTO 24011KT 9999NDV BKN054 04/M01 Q1007 RMK
  • 121120Z AUTO 24012KT 9999NDV BKN054 05/M00 Q1007 RMK
  • 121050Z AUTO 24010KT 200V260 9999NDV BKN053 04/M00 Q1008 RMK
  • 121020Z AUTO 23006KT 9999NDV FEW041 BKN059 04/01 Q1008 RMK
  • 120950Z AUTO 24008KT 210V280 9999NDV BKN041 BKN063 03/M00 Q1009 RMK

Prévision TAF périmée.



MET'MAP, la Météo Aéronautique d'un coup d'oeil ! - Copyright ORBIFLY Décembre 2007 - Disclaimer

ORBIFLY MET'MAP TEAM :

Programmation & Développement : Alexandra Zaïnal
Sur une idée originale de : Baudouin d'Aumeries
Assistance à la programmation : Marc-Olivier Méhu
Soutien technique & logistique : Manuel Goepfert

Contact : metmap@orbifly.com




SOURCES & CREDITS :

   NOAA